Time;durP1;ratioP1;P1;durP2;ratioP2;P2;SDS_P1;SDS_P2;PMS_P1;PMS_P2;Temp;Humidity;BMP_temperature;BMP_pressure;BME280_temperature;BME280_humidity;BME280_pressure;Samples;Min_cycle;Max_cycle;Signal;HPM_P1;HPM_P2
2022/04/15 00:01:10;;;;;;;;;10.25;7.25;;;;;-146.67;100.00;57155.34;5083354;28;62316;-78
2022/04/15 00:03:35;;;;;;;;;7.75;6.50;;;;;-146.67;100.00;57155.34;5082923;28;61752;-78
2022/04/15 00:06:01;;;;;;;;;10.25;8.50;;;;;-146.67;100.00;57155.34;5082212;28;62743;-78
2022/04/15 00:08:26;;;;;;;;;8.00;8.00;;;;;-146.67;100.00;57155.34;5098486;27;61885;-78
2022/04/15 00:10:52;;;;;;;;;9.50;8.50;;;;;-146.67;100.00;57155.34;5098911;27;61831;-78
2022/04/15 00:13:24;;;;;;;;;10.75;7.75;;;;;-146.67;100.00;57155.34;5083173;28;61956;-78
2022/04/15 00:15:53;;;;;;;;;7.25;7.25;;;;;-146.67;100.00;57155.34;5098332;27;64708;-78
2022/04/15 00:18:19;;;;;;;;;12.00;8.00;;;;;-146.67;100.00;57155.34;5082899;28;61992;-78
2022/04/15 00:20:44;;;;;;;;;11.25;10.25;;;;;-146.67;100.00;57155.34;5082527;28;61887;-78
2022/04/15 00:23:10;;;;;;;;;9.00;8.75;;;;;-146.67;100.00;57155.34;5082929;28;62016;-78
2022/04/15 00:25:35;;;;;;;;;9.75;7.00;;;;;-146.67;100.00;57155.34;5097690;27;63615;-78
2022/04/15 00:28:01;;;;;;;;;7.00;7.00;;;;;-146.67;100.00;57155.34;5082864;28;61753;-78
2022/04/15 00:30:27;;;;;;;;;9.25;7.00;;;;;-146.67;100.00;57155.34;5082700;27;61769;-77
2022/04/15 00:32:52;;;;;;;;;5.00;5.00;;;;;-146.67;100.00;57155.34;5082956;28;61966;-78
2022/04/15 00:35:18;;;;;;;;;7.50;7.50;;;;;-146.67;100.00;57155.34;5081830;28;62278;-77
2022/04/15 00:37:43;;;;;;;;;10.25;8.25;;;;;-146.67;100.00;57155.34;5080833;27;61904;-78
2022/04/15 00:40:10;;;;;;;;;7.75;6.25;;;;;-146.67;100.00;57155.34;5082485;28;61981;-78
2022/04/15 00:42:35;;;;;;;;;11.00;8.00;;;;;-146.67;100.00;57155.34;5082698;28;61723;-78
2022/04/15 00:45:02;;;;;;;;;8.25;7.75;;;;;-146.67;100.00;57155.34;5097553;27;64035;-78
2022/04/15 00:47:36;;;;;;;;;9.25;6.75;;;;;-146.67;100.00;57155.34;5082298;28;61876;-78
2022/04/15 00:50:03;;;;;;;;;7.75;7.00;;;;;-146.67;100.00;57155.34;5082490;28;61710;-78
2022/04/15 00:52:34;;;;;;;;;8.00;8.00;;;;;-146.67;100.00;57155.34;5082487;27;61965;-78
2022/04/15 00:55:03;;;;;;;;;9.00;8.00;;;;;-146.67;100.00;57155.34;5081926;28;61749;-77
2022/04/15 00:57:29;;;;;;;;;7.50;5.00;;;;;-146.67;100.00;57155.34;5082019;28;61865;-78
2022/04/15 00:59:58;;;;;;;;;8.00;8.00;;;;;-146.67;100.00;57155.34;5080877;27;61905;-78
2022/04/15 01:02:29;;;;;;;;;10.75;8.25;;;;;-146.67;100.00;57155.34;5082555;28;62175;-78
2022/04/15 01:04:56;;;;;;;;;7.00;4.75;;;;;-146.67;100.00;57155.34;5081300;27;61984;-77
2022/04/15 01:07:29;;;;;;;;;8.75;7.75;;;;;-146.67;100.00;57155.34;5082368;28;62239;-78
2022/04/15 01:09:54;;;;;;;;;9.00;9.00;;;;;-146.67;100.00;57155.34;5082121;28;61833;-78
2022/04/15 01:12:22;;;;;;;;;11.00;10.00;;;;;-146.67;100.00;57155.34;5082557;28;62036;-78
2022/04/15 01:14:48;;;;;;;;;10.25;10.00;;;;;-146.67;100.00;57155.34;5097011;27;64461;-77
2022/04/15 01:17:14;;;;;;;;;11.00;8.50;;;;;-146.67;100.00;57155.34;5082118;28;61818;-77
2022/04/15 01:19:40;;;;;;;;;8.00;8.00;;;;;-146.67;100.00;57155.34;5081704;27;61831;-78
2022/04/15 01:22:11;;;;;;;;;6.75;6.75;;;;;-146.67;100.00;57155.34;5082105;28;62350;-78
2022/04/15 01:24:38;;;;;;;;;9.50;8.00;;;;;-146.67;100.00;57155.34;5081275;28;63069;-77
2022/04/15 01:27:06;;;;;;;;;8.00;7.25;;;;;-146.67;100.00;57155.34;5081867;28;61788;-78
2022/04/15 01:29:38;;;;;;;;;12.50;9.50;;;;;-146.67;100.00;57155.34;5097689;27;61957;-77
2022/04/15 01:32:08;;;;;;;;;10.25;8.50;;;;;-146.67;100.00;57155.34;5080659;28;62172;-78
2022/04/15 01:34:36;;;;;;;;;10.75;9.25;;;;;-146.67;100.00;57155.34;5081402;28;62938;-77
2022/04/15 01:37:03;;;;;;;;;11.50;11.00;;;;;-146.67;100.00;57155.34;5081768;28;61907;-77
2022/04/15 01:39:31;;;;;;;;;13.00;11.00;;;;;-146.67;100.00;57155.34;5081667;28;62004;-78
2022/04/15 01:41:57;;;;;;;;;13.00;10.75;;;;;-146.67;100.00;57155.34;5081983;28;61723;-78
2022/04/15 01:44:23;;;;;;;;;10.00;9.00;;;;;-146.67;100.00;57155.34;5081229;28;62356;-77
2022/04/15 01:46:48;;;;;;;;;16.75;11.00;;;;;-146.67;100.00;57155.34;5081400;28;61946;-78
2022/04/15 01:49:13;;;;;;;;;14.00;10.75;;;;;-146.67;100.00;57155.34;5081831;28;62133;-77
2022/04/15 01:51:39;;;;;;;;;12.25;9.50;;;;;-146.67;100.00;57155.34;5081791;28;61952;-77
2022/04/15 01:54:04;;;;;;;;;12.50;9.00;;;;;-146.67;100.00;57155.34;5081088;28;61888;-77
2022/04/15 01:56:30;;;;;;;;;13.25;12.25;;;;;-146.67;100.00;57155.34;5081701;28;62442;-78
2022/04/15 01:58:55;;;;;;;;;10.00;8.50;;;;;-146.67;100.00;57155.34;5081422;28;62003;-77
2022/04/15 02:01:21;;;;;;;;;11.75;11.25;;;;;-146.67;100.00;57155.34;5081519;28;61849;-78
2022/04/15 02:03:46;;;;;;;;;11.00;11.00;;;;;-146.67;100.00;57155.34;5080596;28;61814;-78
2022/04/15 02:06:12;;;;;;;;;17.00;12.75;;;;;-146.67;100.00;57155.34;5097205;27;62302;-77
2022/04/15 02:08:37;;;;;;;;;10.00;10.00;;;;;-146.67;100.00;57155.34;5081413;28;62186;-78
2022/04/15 02:11:03;;;;;;;;;12.00;11.25;;;;;-146.67;100.00;57155.34;5081629;28;61910;-77
2022/04/15 02:13:28;;;;;;;;;10.00;9.00;;;;;-146.67;100.00;57155.34;5098799;27;63491;-78
2022/04/15 02:15:54;;;;;;;;;15.50;11.25;;;;;-146.67;100.00;57155.34;5084611;28;62364;-78
2022/04/15 02:18:19;;;;;;;;;12.75;12.75;;;;;-146.67;100.00;57155.34;5084949;28;61977;-77
2022/04/15 02:20:45;;;;;;;;;12.25;11.75;;;;;-146.67;100.00;57155.34;5084683;28;62017;-78
2022/04/15 02:23:10;;;;;;;;;14.75;12.25;;;;;-146.67;100.00;57155.34;5084011;28;61702;-78
2022/04/15 02:25:36;;;;;;;;;12.75;11.00;;;;;-146.67;100.00;57155.34;5084812;27;61952;-78
2022/04/15 02:28:01;;;;;;;;;10.50;10.25;;;;;-146.67;100.00;57155.34;5084628;27;61903;-78
2022/04/15 02:30:27;;;;;;;;;12.00;11.00;;;;;-146.67;100.00;57155.34;5083077;28;61889;-78
2022/04/15 02:32:52;;;;;;;;;11.75;10.25;;;;;-146.67;100.00;57155.34;5083603;28;61742;-77
2022/04/15 02:35:18;;;;;;;;;8.75;8.75;;;;;-146.67;100.00;57155.34;5083083;28;61878;-78
2022/04/15 02:37:43;;;;;;;;;13.25;12.25;;;;;-146.67;100.00;57155.34;5082813;28;62044;-78
2022/04/15 02:40:09;;;;;;;;;14.50;11.75;;;;;-146.67;100.00;57155.34;5084423;27;61735;-77
2022/04/15 02:42:35;;;;;;;;;13.00;9.00;;;;;-146.67;100.00;57155.34;5084044;27;61880;-78
2022/04/15 02:45:03;;;;;;;;;17.25;11.00;;;;;-146.67;100.00;57155.34;5083945;27;61789;-78
2022/04/15 02:47:29;;;;;;;;;11.00;11.00;;;;;-146.67;100.00;57155.34;5083126;28;62196;-77
2022/04/15 02:49:55;;;;;;;;;12.00;7.00;;;;;-146.67;100.00;57155.34;5083162;28;62161;-78
2022/04/15 02:52:21;;;;;;;;;13.25;10.25;;;;;-146.67;100.00;57155.34;5083561;28;62207;-78
2022/04/15 02:54:46;;;;;;;;;11.75;8.25;;;;;-146.67;100.00;57155.34;5082869;28;61887;-78
2022/04/15 02:57:12;;;;;;;;;15.75;11.50;;;;;-146.67;100.00;57155.34;5082926;28;61757;-78
2022/04/15 02:59:37;;;;;;;;;12.50;10.50;;;;;-146.67;100.00;57155.34;5084268;27;61678;-77
2022/04/15 03:02:03;;;;;;;;;16.00;12.50;;;;;-146.67;100.00;57155.34;5083210;27;61913;-77
2022/04/15 03:04:29;;;;;;;;;11.75;11.75;;;;;-146.67;100.00;57155.34;5084093;27;61859;-78
2022/04/15 03:06:55;;;;;;;;;11.75;11.50;;;;;-146.67;100.00;57155.34;5099439;27;61788;-77
2022/04/15 03:09:25;;;;;;;;;8.75;8.75;;;;;-146.67;100.00;57155.34;5084143;27;61805;-77
2022/04/15 03:11:51;;;;;;;;;9.00;9.00;;;;;-146.67;100.00;57155.34;5081959;28;64112;-77
2022/04/15 03:14:17;;;;;;;;;12.50;10.25;;;;;-146.67;100.00;57155.34;5083811;27;62162;-77
2022/04/15 03:16:44;;;;;;;;;15.75;12.00;;;;;-146.67;100.00;57155.34;5084092;27;61727;-77
2022/04/15 03:19:09;;;;;;;;;13.75;9.25;;;;;-146.67;100.00;57155.34;5084127;27;61933;-77
2022/04/15 03:21:38;;;;;;;;;14.50;10.75;;;;;-146.67;100.00;57155.34;5082737;28;61957;-78
2022/04/15 03:24:04;;;;;;;;;13.75;11.25;;;;;-146.67;100.00;57155.34;5099171;27;62047;-78
2022/04/15 03:26:30;;;;;;;;;11.50;11.50;;;;;-146.67;100.00;57155.34;5084029;27;61692;-77
2022/04/15 03:28:56;;;;;;;;;15.00;13.00;;;;;-146.67;100.00;57155.34;5083619;28;62078;-78
2022/04/15 03:31:21;;;;;;;;;14.50;12.00;;;;;-146.67;100.00;57155.34;5082976;28;62936;-77
2022/04/15 03:33:47;;;;;;;;;12.25;9.50;;;;;-146.67;100.00;57155.34;5083905;28;61898;-77
2022/04/15 03:36:12;;;;;;;;;15.75;15.75;;;;;-146.67;100.00;57155.34;5081936;27;62092;-77
2022/04/15 03:38:38;;;;;;;;;16.00;14.50;;;;;-146.67;100.00;57155.34;5083880;28;61849;-77
2022/04/15 03:41:04;;;;;;;;;15.00;12.50;;;;;-146.67;100.00;57155.34;5082631;28;61797;-77
2022/04/15 03:43:30;;;;;;;;;10.25;10.25;;;;;-146.67;100.00;57155.34;5098839;27;62324;-77
2022/04/15 03:45:55;;;;;;;;;18.50;14.00;;;;;-146.67;100.00;57155.34;5083796;28;61813;-77
2022/04/15 03:48:21;;;;;;;;;16.50;14.00;;;;;-146.67;100.00;57155.34;5099135;27;61876;-77
2022/04/15 03:50:47;;;;;;;;;19.00;16.50;;;;;-146.67;100.00;57155.34;5082720;28;61943;-77
2022/04/15 03:53:12;;;;;;;;;13.25;11.00;;;;;-146.67;100.00;57155.34;5098746;27;61803;-77
2022/04/15 03:55:38;;;;;;;;;9.75;8.00;;;;;-146.67;100.00;57155.34;5083521;28;61914;-77
2022/04/15 03:58:03;;;;;;;;;13.25;9.75;;;;;-146.67;100.00;57155.34;5083473;28;62203;-77
2022/04/15 04:00:29;;;;;;;;;15.75;12.00;;;;;-146.67;100.00;57155.34;5082475;28;62136;-77
2022/04/15 04:02:54;;;;;;;;;12.75;10.00;;;;;-146.67;100.00;57155.34;5083187;28;62055;-77
2022/04/15 04:05:22;;;;;;;;;12.50;10.50;;;;;-146.67;100.00;57155.34;5082684;28;62338;-77
2022/04/15 04:07:47;;;;;;;;;13.00;13.00;;;;;-146.67;100.00;57155.34;5083349;28;62049;-77
2022/04/15 04:10:14;;;;;;;;;15.50;12.25;;;;;-146.67;100.00;57155.34;5082076;28;62661;-77
2022/04/15 04:12:40;;;;;;;;;14.00;9.75;;;;;-146.67;100.00;57155.34;5083087;28;61848;-77
2022/04/15 04:15:07;;;;;;;;;12.00;11.50;;;;;-146.67;100.00;57155.34;5083038;28;61763;-77
2022/04/15 04:17:33;;;;;;;;;13.50;12.00;;;;;-146.67;100.00;57155.34;5083013;28;61869;-77
2022/04/15 04:19:59;;;;;;;;;13.75;11.25;;;;;-146.67;100.00;57155.34;5082354;28;61858;-77
2022/04/15 04:22:35;;;;;;;;;14.50;12.50;;;;;-146.67;100.00;57155.34;5097910;27;62033;-77
2022/04/15 04:25:01;;;;;;;;;17.00;15.25;;;;;-146.67;100.00;57155.34;5098454;27;62027;-77
2022/04/15 04:27:26;;;;;;;;;16.25;13.00;;;;;-146.67;100.00;57155.34;5098455;27;62019;-77
2022/04/15 04:29:52;;;;;;;;;14.50;13.00;;;;;-146.67;100.00;57155.34;5082267;28;63304;-77
2022/04/15 04:32:19;;;;;;;;;15.00;13.00;;;;;-146.67;100.00;57155.34;5098279;27;61783;-77
2022/04/15 04:34:45;;;;;;;;;17.75;14.75;;;;;-146.67;100.00;57155.34;5082544;28;61941;-77
2022/04/15 04:37:11;;;;;;;;;19.75;13.75;;;;;-146.67;100.00;57155.34;5098222;27;62206;-77
2022/04/15 04:39:36;;;;;;;;;15.75;14.50;;;;;-146.67;100.00;57155.34;5081655;28;61976;-76
2022/04/15 04:42:05;;;;;;;;;7.50;4.00;;;;;-146.67;100.00;57155.34;5082130;28;61944;-77
2022/04/15 04:44:31;;;;;;;;;17.75;15.75;;;;;-146.67;100.00;57155.34;5082557;28;61647;-77
2022/04/15 04:46:58;;;;;;;;;17.50;15.00;;;;;-146.67;100.00;57155.34;5082772;28;61764;-77
2022/04/15 04:49:24;;;;;;;;;15.75;15.75;;;;;-146.67;100.00;57155.34;5081846;28;62886;-77
2022/04/15 04:51:50;;;;;;;;;12.25;12.25;;;;;-146.67;100.00;57155.34;5098091;27;61914;-77
2022/04/15 04:54:16;;;;;;;;;13.00;11.25;;;;;-146.67;100.00;57155.34;5082086;27;62056;-77
2022/04/15 04:56:41;;;;;;;;;13.00;13.00;;;;;-146.67;100.00;57155.34;5082457;28;61927;-77
2022/04/15 04:59:06;;;;;;;;;15.75;15.00;;;;;-146.67;100.00;57155.34;5081472;28;62704;-77
2022/04/15 05:01:32;;;;;;;;;10.75;10.75;;;;;-146.67;100.00;57155.34;5082030;27;61914;-77
2022/04/15 05:03:57;;;;;;;;;18.25;14.75;;;;;-146.67;100.00;57155.34;5082077;27;62376;-79
2022/04/15 05:06:23;;;;;;;;;14.75;14.75;;;;;-146.67;100.00;57155.34;5092949;27;61901;-79
2022/04/15 05:08:48;;;;;;;;;16.00;13.00;;;;;-146.67;100.00;57155.34;5087257;27;63839;-75
2022/04/15 05:11:14;;;;;;;;;14.75;13.75;;;;;-146.67;100.00;57155.34;5100903;27;61783;-78
2022/04/15 05:13:39;;;;;;;;;14.00;13.00;;;;;-146.67;100.00;57155.34;5082102;27;61884;-78
2022/04/15 05:16:05;;;;;;;;;14.75;14.75;;;;;-146.67;100.00;57155.34;5095086;27;61694;-78
2022/04/15 05:18:30;;;;;;;;;14.00;12.75;;;;;-146.67;100.00;57155.34;5081562;27;62737;-79
2022/04/15 05:20:55;;;;;;;;;20.50;15.25;;;;;-146.67;100.00;57155.34;5090374;27;62022;-79
2022/04/15 05:23:21;;;;;;;;;14.25;13.25;;;;;-146.67;100.00;57155.34;5079438;28;61859;-79
2022/04/15 05:25:46;;;;;;;;;17.75;13.00;;;;;-146.67;100.00;57155.34;5081410;27;61957;-79
2022/04/15 05:28:12;;;;;;;;;15.75;13.75;;;;;-146.67;100.00;57155.34;5078989;28;64626;-79
2022/04/15 05:30:38;;;;;;;;;13.75;13.75;;;;;-146.67;100.00;57155.34;5096558;27;62022;-79
2022/04/15 05:33:03;;;;;;;;;14.50;10.50;;;;;-146.67;100.00;57155.34;5080982;27;61737;-79
2022/04/15 05:35:29;;;;;;;;;18.00;13.00;;;;;-146.67;100.00;57155.34;5077000;27;61943;-79
2022/04/15 05:37:54;;;;;;;;;16.00;11.00;;;;;-146.67;100.00;57155.34;5064508;28;61766;-79
2022/04/15 05:40:22;;;;;;;;;14.50;13.25;;;;;-146.67;100.00;57155.34;5078791;27;62222;-80
2022/04/15 05:42:47;;;;;;;;;12.25;11.00;;;;;-146.67;100.00;57155.34;5079461;27;61927;-80
2022/04/15 05:45:13;;;;;;;;;15.00;12.75;;;;;-146.67;100.00;57155.34;5080957;27;61848;-78
2022/04/15 05:47:39;;;;;;;;;13.75;12.50;;;;;-146.67;100.00;57155.34;5080925;27;62703;-78
2022/04/15 05:50:06;;;;;;;;;16.75;14.75;;;;;-146.67;100.00;57155.34;5084262;27;61781;-78
2022/04/15 05:52:33;;;;;;;;;11.00;9.25;;;;;-146.67;100.00;57155.34;5084921;27;61917;-78
2022/04/15 05:54:58;;;;;;;;;14.50;12.50;;;;;-146.67;100.00;57155.34;5086473;27;62037;-78
2022/04/15 05:57:24;;;;;;;;;11.00;10.75;;;;;-146.67;100.00;57155.34;5096386;27;63568;-78
2022/04/15 05:59:53;;;;;;;;;12.75;12.50;;;;;-146.67;100.00;57155.34;5063157;28;61782;-79
2022/04/15 06:02:24;;;;;;;;;15.50;12.00;;;;;-146.67;100.00;57155.34;5076669;28;61904;-79
2022/04/15 06:04:50;;;;;;;;;16.25;12.75;;;;;-146.67;100.00;57155.34;5086570;28;61828;-78
2022/04/15 06:07:15;;;;;;;;;11.75;10.00;;;;;-146.67;100.00;57155.34;5083466;28;61989;-78
2022/04/15 06:09:41;;;;;;;;;13.75;11.25;;;;;-146.67;100.00;57155.34;5084209;27;61962;-77
2022/04/15 06:12:07;;;;;;;;;15.50;15.50;;;;;-146.67;100.00;57155.34;5084875;27;61932;-78
2022/04/15 06:14:35;;;;;;;;;12.00;12.00;;;;;-146.67;100.00;57155.34;5084840;28;61694;-77
2022/04/15 06:17:01;;;;;;;;;13.50;13.00;;;;;-146.67;100.00;57155.34;5084150;27;61740;-78
2022/04/15 06:19:27;;;;;;;;;12.00;12.00;;;;;-146.67;100.00;57155.34;5084099;27;61928;-78
2022/04/15 06:21:52;;;;;;;;;15.25;11.75;;;;;-146.67;100.00;57155.34;5080856;27;61792;-77
2022/04/15 06:24:18;;;;;;;;;14.25;13.00;;;;;-146.67;100.00;57155.34;5084991;28;61809;-78
2022/04/15 06:26:43;;;;;;;;;12.50;12.50;;;;;-146.67;100.00;57155.34;5083462;28;61742;-77
2022/04/15 06:29:09;;;;;;;;;11.75;11.75;;;;;-146.67;100.00;57155.34;5084256;28;61724;-78
2022/04/15 06:31:34;;;;;;;;;13.75;13.75;;;;;-146.67;100.00;57155.34;5084015;28;61687;-76
2022/04/15 06:34:00;;;;;;;;;16.25;15.00;;;;;-146.67;100.00;57155.34;5084776;28;61657;-79
2022/04/15 06:36:25;;;;;;;;;15.25;15.25;;;;;-146.67;100.00;57155.34;5083369;28;62137;-79
2022/04/15 06:38:51;;;;;;;;;14.75;14.00;;;;;-146.67;100.00;57155.34;5099621;27;62133;-80
2022/04/15 06:41:16;;;;;;;;;15.75;14.50;;;;;-146.67;100.00;57155.34;5084416;28;62173;-77
2022/04/15 06:43:42;;;;;;;;;17.50;16.50;;;;;-146.67;100.00;57155.34;5084317;28;61853;-76
2022/04/15 06:46:07;;;;;;;;;14.00;14.00;;;;;-146.67;100.00;57155.34;5083773;28;62693;-77
2022/04/15 06:48:33;;;;;;;;;14.50;10.75;;;;;-146.67;100.00;57155.34;5084235;28;61919;-76
2022/04/15 06:50:58;;;;;;;;;15.25;11.75;;;;;-146.67;100.00;57155.34;5098571;27;62399;-77
2022/04/15 06:53:24;;;;;;;;;15.50;12.50;;;;;-146.67;100.00;57155.34;5082870;28;61920;-78
2022/04/15 06:55:50;;;;;;;;;12.50;12.50;;;;;-146.67;100.00;57155.34;5098200;27;64870;-75
2022/04/15 06:58:16;;;;;;;;;14.00;12.75;;;;;-146.67;100.00;57155.34;5082662;28;61945;-75
2022/04/15 07:00:42;;;;;;;;;13.25;11.75;;;;;-146.67;100.00;57155.34;5079481;28;62012;-77
2022/04/15 07:03:12;;;;;;;;;13.25;11.25;;;;;-146.67;100.00;57155.34;5097932;27;62072;-77
2022/04/15 07:05:37;;;;;;;;;13.00;13.00;;;;;-146.67;100.00;57155.34;5082225;28;61839;-77
2022/04/15 07:08:03;;;;;;;;;16.25;14.50;;;;;-146.67;100.00;57155.34;5082986;27;62019;-77
2022/04/15 07:10:28;;;;;;;;;11.75;11.75;;;;;-146.67;100.00;57155.34;5099017;27;61802;-77
2022/04/15 07:12:53;;;;;;;;;16.25;13.25;;;;;-146.67;100.00;57155.34;5083285;27;61776;-77
2022/04/15 07:15:20;;;;;;;;;9.25;9.00;;;;;-146.67;100.00;57155.34;5082634;27;62158;-77
2022/04/15 07:17:46;;;;;;;;;13.00;11.75;;;;;-146.67;100.00;57155.34;5081363;28;62316;-77
2022/04/15 07:20:11;;;;;;;;;12.50;12.50;;;;;-146.67;100.00;57155.34;5082735;27;62260;-77
2022/04/15 07:22:37;;;;;;;;;14.00;13.25;;;;;-146.67;100.00;57155.34;5095303;27;61844;-77
2022/04/15 07:25:03;;;;;;;;;14.75;11.75;;;;;-146.67;100.00;57155.34;5082688;27;61937;-77
2022/04/15 07:27:28;;;;;;;;;11.75;11.75;;;;;-146.67;100.00;57155.34;5083728;27;62160;-77
2022/04/15 07:29:54;;;;;;;;;13.00;11.75;;;;;-146.67;100.00;57155.34;5083374;27;61783;-77
2022/04/15 07:32:21;;;;;;;;;12.25;12.25;;;;;-146.67;100.00;57155.34;5083545;27;61798;-78
2022/04/15 07:34:47;;;;;;;;;8.00;8.00;;;;;-146.67;100.00;57155.34;5094803;27;63538;-77
2022/04/15 07:37:12;;;;;;;;;14.00;13.00;;;;;-146.67;100.00;57155.34;5062790;28;61972;-77
2022/04/15 07:39:39;;;;;;;;;11.00;10.00;;;;;-146.67;100.00;57155.34;5062943;28;61913;-77
2022/04/15 07:42:05;;;;;;;;;12.00;12.00;;;;;-146.67;100.00;57155.34;5063226;28;61849;-77
2022/04/15 07:44:30;;;;;;;;;12.75;12.00;;;;;-146.67;100.00;57155.34;5062407;28;61822;-77
2022/04/15 07:46:56;;;;;;;;;14.50;13.25;;;;;-146.67;100.00;57155.34;5062692;28;61775;-77
2022/04/15 07:49:21;;;;;;;;;14.75;13.00;;;;;-146.67;100.00;57155.34;5062917;28;61848;-78
2022/04/15 07:51:48;;;;;;;;;15.50;12.50;;;;;-146.67;100.00;57155.34;5062912;28;61791;-78
2022/04/15 07:54:14;;;;;;;;;12.50;11.50;;;;;-146.67;100.00;57155.34;5094707;27;63642;-78
2022/04/15 07:56:39;;;;;;;;;17.75;15.75;;;;;-146.67;100.00;57155.34;5061410;28;61886;-79
2022/04/15 07:59:05;;;;;;;;;18.00;14.50;;;;;-146.67;100.00;57155.34;5082016;28;61841;-79
2022/04/15 08:01:31;;;;;;;;;17.25;15.50;;;;;-146.67;100.00;57155.34;5082695;27;61948;-80
2022/04/15 08:03:59;;;;;;;;;16.25;15.25;;;;;-146.67;100.00;57155.34;5081662;27;62032;-83
2022/04/15 08:06:26;;;;;;;;;15.75;12.75;;;;;-146.67;100.00;57155.34;5051305;28;62092;-81
2022/04/15 08:09:00;;;;;;;;;15.75;14.50;;;;;-146.67;100.00;57155.34;5055872;28;61798;-82
2022/04/15 08:11:26;;;;;;;;;18.00;14.00;;;;;-146.67;100.00;57155.34;5060132;27;61976;-81
2022/04/15 08:13:54;;;;;;;;;12.50;12.50;;;;;-146.67;100.00;57155.34;5061365;28;62021;-81
2022/04/15 08:16:20;;;;;;;;;13.00;10.50;;;;;-146.67;100.00;57155.34;5061561;28;61760;-80
2022/04/15 08:18:46;;;;;;;;;11.25;11.00;;;;;-146.67;100.00;57155.34;5061834;28;61988;-81
2022/04/15 08:21:11;;;;;;;;;12.25;9.75;;;;;-146.67;100.00;57155.34;5061762;28;62144;-81
2022/04/15 08:23:38;;;;;;;;;11.25;11.25;;;;;-146.67;100.00;57155.34;5061166;28;61949;-81
2022/04/15 08:26:03;;;;;;;;;12.50;10.75;;;;;-146.67;100.00;57155.34;5061443;28;61817;-81
2022/04/15 08:28:29;;;;;;;;;10.50;10.00;;;;;-146.67;100.00;57155.34;5061873;28;62047;-81
2022/04/15 08:30:54;;;;;;;;;11.00;9.00;;;;;-146.67;100.00;57155.34;5060141;28;62098;-81
2022/04/15 08:33:20;;;;;;;;;10.50;9.00;;;;;-146.67;100.00;57155.34;5059647;28;63628;-81
2022/04/15 08:35:47;;;;;;;;;18.00;11.00;;;;;-146.67;100.00;57155.34;5061605;28;61968;-81
2022/04/15 08:38:13;;;;;;;;;11.50;8.75;;;;;-146.67;100.00;57155.34;5061565;28;62006;-81
2022/04/15 08:40:43;;;;;;;;;10.25;10.25;;;;;-146.67;100.00;57155.34;5061780;28;61698;-81
2022/04/15 08:43:09;;;;;;;;;11.50;7.25;;;;;-146.67;100.00;57155.34;5060969;28;63081;-81
2022/04/15 08:45:40;;;;;;;;;8.00;8.00;;;;;-146.67;100.00;57155.34;5077445;28;61883;-81
2022/04/15 08:48:07;;;;;;;;;11.50;11.50;;;;;-146.67;100.00;57155.34;5061450;28;61792;-81
2022/04/15 08:50:32;;;;;;;;;12.50;10.50;;;;;-146.67;100.00;57155.34;5061859;28;61812;-81
2022/04/15 08:52:59;;;;;;;;;16.75;13.75;;;;;-146.67;100.00;57155.34;5060803;28;62857;-82
2022/04/15 08:55:27;;;;;;;;;11.50;11.00;;;;;-146.67;100.00;57155.34;5061508;28;62017;-81
2022/04/15 08:57:54;;;;;;;;;13.50;12.25;;;;;-146.67;100.00;57155.34;5077370;28;61746;-81
2022/04/15 09:00:20;;;;;;;;;14.00;10.50;;;;;-146.67;100.00;57155.34;5061315;28;61729;-81
2022/04/15 09:02:46;;;;;;;;;12.50;11.50;;;;;-146.67;100.00;57155.34;5059241;28;63957;-81
2022/04/15 09:05:17;;;;;;;;;12.50;9.50;;;;;-146.67;100.00;57155.34;5070768;28;62016;-80
2022/04/15 09:07:43;;;;;;;;;13.50;9.00;;;;;-146.67;100.00;57155.34;5081036;27;62032;-79
2022/04/15 09:10:10;;;;;;;;;14.25;12.25;;;;;-146.67;100.00;57155.34;5081115;28;61711;-80
2022/04/15 09:12:36;;;;;;;;;15.00;8.25;;;;;-146.67;100.00;57155.34;5096723;27;64965;-80
2022/04/15 09:15:07;;;;;;;;;9.25;9.25;;;;;-146.67;100.00;57155.34;5081388;28;62011;-84
2022/04/15 09:17:42;;;;;;;;;13.50;10.25;;;;;-146.67;100.00;57155.34;5080770;28;61848;-86
2022/04/15 09:20:12;;;;;;;;;5.75;5.25;;;;;-146.67;100.00;57155.34;5096168;27;61853;-84
2022/04/15 09:22:38;;;;;;;;;8.00;8.00;;;;;-146.67;100.00;57155.34;5081707;28;64694;-84
2022/04/15 09:25:06;;;;;;;;;12.50;9.25;;;;;-146.67;100.00;57155.34;5083756;28;61927;-83
2022/04/15 09:27:35;;;;;;;;;12.25;9.50;;;;;-146.67;100.00;57155.34;5084493;28;61764;-84
2022/04/15 09:30:07;;;;;;;;;11.75;7.00;;;;;-146.67;100.00;57155.34;5092004;27;62053;-85
2022/04/15 09:32:40;;;;;;;;;7.00;6.00;;;;;-146.67;100.00;57155.34;5079800;28;64367;-84
2022/04/15 09:35:08;;;;;;;;;4.75;4.00;;;;;-146.67;100.00;57155.34;5083610;27;61907;-82
2022/04/15 09:37:40;;;;;;;;;2.00;1.00;;;;;-146.67;100.00;57155.34;5083639;28;61982;-79
2022/04/15 09:40:17;;;;;;;;;1.00;0.00;;;;;-146.67;100.00;57155.34;5084597;27;61865;-81
2022/04/15 09:42:51;;;;;;;;;1.50;1.50;;;;;-146.67;100.00;57155.34;5083030;28;61940;-80
2022/04/15 09:45:37;;;;;;;;;1.25;1.25;;;;;-146.67;100.00;57155.34;5083722;27;61965;-80
2022/04/15 09:48:08;;;;;;;;;1.50;1.50;;;;;-146.67;100.00;57155.34;5082447;28;61950;-81
2022/04/15 09:50:42;;;;;;;;;1.00;1.00;;;;;-146.67;100.00;57155.34;5084624;28;62018;-81
2022/04/15 09:53:15;;;;;;;;;1.00;1.00;;;;;-146.67;100.00;57155.34;5099679;27;64785;-81
2022/04/15 09:55:43;;;;;;;;;0.00;0.00;;;;;-146.67;100.00;57155.34;5084513;27;62053;-81
2022/04/15 09:58:09;;;;;;;;;0.00;0.00;;;;;-146.67;100.00;57155.34;5099707;27;62336;-80
2022/04/15 10:00:36;;;;;;;;;0.50;0.00;;;;;-146.67;100.00;57155.34;5084203;27;61983;-81
2022/04/15 10:03:05;;;;;;;;;0.00;0.00;;;;;-146.67;100.00;57155.34;5096626;27;64713;-81
2022/04/15 10:05:32;;;;;;;;;0.00;0.00;;;;;-146.67;100.00;57155.34;5081791;27;61932;-80
2022/04/15 10:07:58;;;;;;;;;2.00;1.00;;;;;-146.67;100.00;57155.34;5083137;27;61785;-80
2022/04/15 10:10:25;;;;;;;;;1.00;1.00;;;;;-146.67;100.00;57155.34;5083607;27;62289;-80
2022/04/15 10:12:53;;;;;;;;;2.75;1.00;;;;;-146.67;100.00;57155.34;5083217;27;62068;-79
2022/04/15 10:15:18;;;;;;;;;1.00;1.00;;;;;-146.67;100.00;57155.34;5083961;28;61904;-80
2022/04/15 10:17:44;;;;;;;;;2.00;1.00;;;;;-146.67;100.00;57155.34;5083853;27;61818;-79
2022/04/15 10:20:10;;;;;;;;;1.25;1.25;;;;;-146.67;100.00;57155.34;5083877;27;61900;-80
2022/04/15 10:22:38;;;;;;;;;1.75;1.00;;;;;-146.67;100.00;57155.34;5082508;27;61820;-80
2022/04/15 10:25:08;;;;;;;;;1.00;1.00;;;;;-146.67;100.00;57155.34;5107390;27;62085;-79
2022/04/15 10:27:34;;;;;;;;;0.75;0.75;;;;;-146.67;100.00;57155.34;5083422;27;61879;-79
2022/04/15 10:30:02;;;;;;;;;0.00;0.00;;;;;-146.67;100.00;57155.34;5083720;27;62022;-80
2022/04/15 10:32:28;;;;;;;;;1.50;1.50;;;;;-146.67;100.00;57155.34;5083232;28;62927;-79
2022/04/15 10:34:53;;;;;;;;;1.00;1.00;;;;;-146.67;100.00;57155.34;5080155;28;61972;-80
2022/04/15 10:37:53;;;;;;;;;1.25;1.00;;;;;-146.67;100.00;57155.34;5083564;27;61735;-82
2022/04/15 10:40:27;;;;;;;;;1.00;0.00;;;;;-146.67;100.00;57155.34;5084101;27;62045;-82
2022/04/15 10:42:53;;;;;;;;;0.50;0.50;;;;;-146.67;100.00;57155.34;5081740;28;63608;-81
2022/04/15 10:45:35;;;;;;;;;0.00;0.00;;;;;-146.67;100.00;57155.34;5083905;28;61787;-82
2022/04/15 10:48:01;;;;;;;;;0.25;0.00;;;;;-146.67;100.00;57155.34;5083810;28;61860;-81
2022/04/15 10:50:29;;;;;;;;;1.50;1.00;;;;;-146.67;100.00;57155.34;5083861;27;61894;-83
2022/04/15 10:53:23;;;;;;;;;0.00;0.00;;;;;-146.67;100.00;57155.34;5082885;28;62018;-80
2022/04/15 10:55:52;;;;;;;;;2.50;2.00;;;;;-146.67;100.00;57155.34;5081740;28;61728;-81
2022/04/15 10:58:19;;;;;;;;;1.00;1.00;;;;;-146.67;100.00;57155.34;5083294;28;61817;-81